CD07 weather

Poudre Valley Hospital Heliport
Fort Collins, Colorado, United States

Public forecast

Using degrees Fahrenheit for public forecast. Weather courtesy of forecast.io.

METAR (pilot weather report)

Closest report is Northern Colorado Regional Airport, 7.5 nm (13.9 km) SSE. Retrieved 2019/08/24 03:12 UTC (13 minutes ago):

KFNL 240312Z AUTO 13021G26KT 10SM CLR 23/08 A2997 RMK AO2 PK WND 13026/0310 WSHFT 0252 PRESFR

TAF (pilot weather forecast)

Forecast is more than 12 hours old.

Closest forecast is Cheyenne Regional Jerry Olson Field, 36.8 nm (68.1 km) NNE. Retrieved 2019/08/23 00:22 UTC (1 day ago):

TAF KCYS 232320Z 2400/2424 12013G24KT P6SM VCTS SCT030 BKN100CB TEMPO 2400/2402 VRB20G35KT 5SM TSRA BKN050CB FM240300 18010KT P6SM BKN100 FM240800 18008KT 2SM BR OVC015 FM241500 29012G22KT P6SM SKC